createdAt,value
2018-12-29T00:00:00.904Z,81.04
2018-12-29T00:02:29.728Z,81.59
2018-12-29T00:04:58.404Z,81.83
2018-12-29T00:07:27.081Z,81.93
2018-12-29T00:09:55.801Z,81.50
2018-12-29T00:12:24.560Z,80.57
2018-12-29T00:14:55.066Z,81.40
2018-12-29T00:17:23.796Z,82.19
2018-12-29T00:19:52.482Z,82.73
2018-12-29T00:22:21.166Z,83.26
2018-12-29T00:24:50.021Z,83.56
2018-12-29T00:27:18.703Z,84.14
2018-12-29T00:29:47.379Z,83.69
2018-12-29T00:32:16.305Z,83.84
2018-12-29T00:34:44.988Z,83.89
2018-12-29T00:37:13.684Z,83.32
2018-12-29T00:39:42.774Z,83.25
2018-12-29T00:42:11.438Z,82.16
2018-12-29T00:44:40.129Z,81.55
2018-12-29T00:47:08.944Z,81.55
2018-12-29T00:49:37.625Z,81.83
2018-12-29T00:52:06.294Z,80.37
2018-12-29T00:54:35.124Z,80.19
2018-12-29T00:57:03.843Z,80.71
2018-12-29T00:59:35.576Z,80.18
2018-12-29T01:02:04.441Z,79.95
2018-12-29T01:04:33.120Z,79.46
2018-12-29T01:07:01.807Z,79.51
2018-12-29T01:09:30.808Z,79.34
2018-12-29T01:11:59.485Z,79.11
2018-12-29T01:14:28.161Z,78.66
2018-12-29T01:16:56.937Z,78.70
2018-12-29T01:19:25.626Z,78.44
2018-12-29T01:21:54.310Z,77.54
2018-12-29T01:24:23.339Z,77.24
2018-12-29T01:26:52.026Z,77.25
2018-12-29T01:29:22.176Z,77.34
2018-12-29T01:31:51.121Z,77.23
2018-12-29T01:34:19.817Z,77.01
2018-12-29T01:36:48.496Z,76.52
2018-12-29T01:39:17.333Z,76.70
2018-12-29T01:41:46.011Z,76.61
2018-12-29T01:44:14.901Z,77.01
2018-12-29T01:46:43.642Z,76.86
2018-12-29T01:49:12.667Z,76.91
2018-12-29T01:51:41.336Z,77.02
2018-12-29T01:54:10.088Z,77.21
2018-12-29T01:56:38.768Z,77.52
2018-12-29T01:59:07.444Z,77.85
2018-12-29T02:01:36.436Z,77.85
2018-12-29T02:04:05.235Z,78.26
2018-12-29T02:06:33.906Z,78.95
2018-12-29T02:09:02.850Z,79.36
2018-12-29T02:11:31.531Z,80.38
2018-12-29T02:14:00.224Z,79.82
2018-12-29T02:16:29.109Z,80.41
2018-12-29T02:18:57.728Z,79.99
2018-12-29T02:21:26.414Z,79.55
2018-12-29T02:23:55.158Z,79.68
2018-12-29T02:26:23.837Z,79.27
2018-12-29T02:28:52.529Z,79.05
2018-12-29T02:31:21.363Z,78.62
2018-12-29T02:33:50.095Z,78.41
2018-12-29T02:36:18.783Z,78.33
2018-12-29T02:38:47.648Z,78.06
2018-12-29T02:41:16.327Z,78.04
2018-12-29T02:43:44.994Z,78.48
2018-12-29T02:46:13.722Z,79.32
2018-12-29T02:48:42.511Z,80.86
2018-12-29T02:51:11.193Z,82.74
2018-12-29T02:53:39.915Z,83.71
2018-12-29T02:56:08.599Z,84.94
2018-12-29T02:58:37.297Z,85.38
2018-12-29T03:01:06.114Z,85.77
2018-12-29T03:03:34.794Z,84.59
2018-12-29T03:06:03.511Z,84.50
2018-12-29T03:08:32.315Z,84.74
2018-12-29T03:11:00.997Z,84.35
2018-12-29T03:13:29.663Z,84.16
2018-12-29T03:15:58.722Z,83.34
2018-12-29T03:18:27.367Z,83.37
2018-12-29T03:20:56.050Z,83.22
2018-12-29T03:23:24.860Z,83.16
2018-12-29T03:25:53.544Z,83.19
2018-12-29T03:28:22.226Z,83.20
2018-12-29T03:30:51.009Z,82.98
2018-12-29T03:33:19.663Z,82.49
2018-12-29T03:35:48.344Z,82.46
2018-12-29T03:38:17.296Z,82.46
2018-12-29T03:40:45.967Z,82.57
2018-12-29T03:43:14.658Z,82.85
2018-12-29T03:45:49.047Z,82.79
2018-12-29T03:48:13.799Z,82.83
2018-12-29T03:50:42.486Z,82.75
2018-12-29T03:53:11.567Z,81.89
2018-12-29T03:55:40.246Z,81.68
2018-12-29T03:58:08.932Z,82.06
2018-12-29T04:00:37.817Z,82.36
2018-12-29T04:03:06.505Z,82.05
2018-12-29T04:05:35.206Z,81.62
2018-12-29T04:08:05.406Z,81.15
2018-12-29T04:10:34.097Z,81.61
2018-12-29T04:13:02.760Z,81.86
2018-12-29T04:15:31.566Z,82.16
2018-12-29T04:18:00.253Z,82.15
2018-12-29T04:20:28.958Z,82.18
2018-12-29T04:22:57.835Z,82.23
2018-12-29T04:25:26.511Z,82.61
2018-12-29T04:27:55.202Z,82.94
2018-12-29T04:30:23.990Z,83.11
2018-12-29T04:32:52.661Z,83.04
2018-12-29T04:35:21.344Z,82.57
2018-12-29T04:37:50.205Z,82.30
2018-12-29T04:40:18.885Z,81.83
2018-12-29T04:42:47.575Z,81.58
2018-12-29T04:45:16.426Z,81.11
2018-12-29T04:47:46.196Z,80.78
2018-12-29T04:50:14.882Z,80.79
2018-12-29T04:52:44.012Z,81.39
2018-12-29T04:55:12.680Z,81.20
2018-12-29T04:57:41.358Z,81.28
2018-12-29T05:00:10.194Z,81.29
2018-12-29T05:02:38.889Z,81.66
2018-12-29T05:05:07.631Z,81.50
2018-12-29T05:07:36.747Z,81.46
2018-12-29T05:10:07.373Z,82.11
2018-12-29T05:12:36.046Z,82.47
2018-12-29T05:15:05.405Z,82.47
2018-12-29T05:17:34.082Z,83.14
2018-12-29T05:20:02.764Z,83.32
2018-12-29T05:22:31.684Z,83.55
2018-12-29T05:25:00.357Z,83.39
2018-12-29T05:27:29.042Z,83.21
2018-12-29T05:29:58.083Z,83.22
2018-12-29T05:32:26.770Z,82.37
2018-12-29T05:34:55.454Z,81.45
2018-12-29T05:37:24.456Z,81.21
2018-12-29T05:39:53.158Z,81.49
2018-12-29T05:42:21.831Z,80.98
2018-12-29T05:44:50.657Z,81.42
2018-12-29T05:47:19.337Z,80.99
2018-12-29T05:49:48.028Z,80.14
2018-12-29T05:52:16.885Z,79.97
2018-12-29T05:54:45.564Z,79.96
2018-12-29T05:57:14.248Z,80.64
2018-12-29T05:59:43.123Z,80.96
2018-12-29T06:02:11.767Z,80.65
2018-12-29T06:04:40.447Z,81.16
2018-12-29T06:07:09.170Z,81.44
2018-12-29T06:09:37.843Z,81.34
2018-12-29T06:12:07.030Z,81.38
2018-12-29T06:14:35.800Z,80.92
2018-12-29T06:17:04.684Z,80.77
2018-12-29T06:19:33.374Z,80.90
2018-12-29T06:22:02.224Z,80.58
2018-12-29T06:24:30.917Z,80.65
2018-12-29T06:26:59.611Z,80.62
2018-12-29T06:29:28.531Z,80.24
2018-12-29T06:31:57.205Z,80.02
2018-12-29T06:34:25.893Z,79.68
2018-12-29T06:36:54.622Z,79.49
2018-12-29T06:39:23.308Z,79.57
2018-12-29T06:41:51.989Z,79.20
2018-12-29T06:44:20.933Z,78.96
2018-12-29T06:46:49.609Z,78.19
2018-12-29T06:49:18.291Z,78.26
2018-12-29T06:51:47.287Z,77.72
2018-12-29T06:54:15.957Z,77.65
2018-12-29T06:56:44.645Z,75.92
2018-12-29T06:59:13.568Z,75.73
2018-12-29T07:01:42.237Z,75.80
2018-12-29T07:04:10.918Z,74.90
2018-12-29T07:06:39.636Z,75.23
2018-12-29T07:09:08.342Z,75.35
2018-12-29T07:11:38.621Z,75.58
2018-12-29T07:14:08.036Z,75.80
2018-12-29T07:16:42.237Z,76.22
2018-12-29T07:19:07.094Z,76.08
2018-12-29T07:21:36.146Z,76.89
2018-12-29T07:24:04.828Z,76.50
2018-12-29T07:26:33.509Z,76.52
2018-12-29T07:29:02.266Z,76.12
2018-12-29T07:31:30.950Z,76.82
2018-12-29T07:34:00.045Z,75.95
2018-12-29T07:36:28.867Z,76.04
2018-12-29T07:38:57.548Z,75.42
2018-12-29T07:41:26.232Z,75.32
2018-12-29T07:43:55.202Z,75.29
2018-12-29T07:46:23.893Z,75.16
2018-12-29T07:48:52.579Z,75.44
2018-12-29T07:51:21.296Z,75.66
2018-12-29T07:53:49.986Z,75.97
2018-12-29T07:56:18.668Z,75.61
2018-12-29T07:58:47.618Z,75.57
2018-12-29T08:01:16.301Z,75.68
2018-12-29T08:03:45.006Z,75.72
2018-12-29T08:06:13.860Z,75.15
2018-12-29T08:08:42.556Z,75.37
2018-12-29T08:11:11.241Z,75.80
2018-12-29T08:13:39.989Z,75.64
2018-12-29T08:16:08.741Z,76.06
2018-12-29T08:18:37.434Z,75.52
2018-12-29T08:21:06.521Z,75.92
2018-12-29T08:23:35.585Z,75.93
2018-12-29T08:26:04.267Z,75.87
2018-12-29T08:28:33.014Z,75.62
2018-12-29T08:31:01.700Z,75.42
2018-12-29T08:33:30.390Z,74.69
2018-12-29T08:35:59.231Z,75.10
2018-12-29T08:38:27.949Z,74.55
2018-12-29T08:40:56.616Z,74.55
2018-12-29T08:43:25.697Z,73.99
2018-12-29T08:45:54.507Z,74.40
2018-12-29T08:48:23.166Z,73.52
2018-12-29T08:50:52.168Z,73.35
2018-12-29T08:53:20.858Z,73.37
2018-12-29T08:55:49.527Z,72.89
2018-12-29T08:58:18.245Z,74.16
2018-12-29T09:00:46.924Z,72.60
2018-12-29T09:03:15.609Z,72.32
2018-12-29T09:05:44.426Z,72.72
2018-12-29T09:08:13.114Z,72.16
2018-12-29T09:10:41.802Z,72.19
2018-12-29T09:13:10.895Z,71.64
2018-12-29T09:15:39.584Z,72.38
2018-12-29T09:18:09.381Z,71.89
2018-12-29T09:20:38.229Z,71.92
2018-12-29T09:23:06.939Z,71.52
2018-12-29T09:25:35.649Z,72.01
2018-12-29T09:28:04.515Z,71.71
2018-12-29T09:30:33.198Z,70.87
2018-12-29T09:33:01.870Z,71.08
2018-12-29T09:35:30.675Z,70.98
2018-12-29T09:37:59.375Z,70.37
2018-12-29T09:40:28.063Z,69.37
2018-12-29T09:42:56.823Z,69.63
2018-12-29T09:45:25.518Z,69.76
2018-12-29T09:47:54.205Z,69.89
2018-12-29T09:50:23.350Z,69.23
2018-12-29T09:52:51.978Z,69.50
2018-12-29T09:55:20.660Z,68.90
2018-12-29T09:57:49.662Z,69.31
2018-12-29T10:00:18.440Z,68.68
2018-12-29T10:02:47.135Z,68.42
2018-12-29T10:05:16.183Z,68.26
2018-12-29T10:07:44.882Z,67.52
2018-12-29T10:10:13.566Z,67.41
2018-12-29T10:12:42.381Z,67.04
2018-12-29T10:15:11.109Z,66.89
2018-12-29T10:17:39.738Z,66.51
2018-12-29T10:20:08.619Z,66.23
2018-12-29T10:22:37.311Z,65.36
2018-12-29T10:25:06.180Z,64.46
2018-12-29T10:27:35.127Z,64.25
2018-12-29T10:30:04.273Z,64.72
2018-12-29T10:32:32.965Z,64.12
2018-12-29T10:35:01.844Z,63.64
2018-12-29T10:37:30.532Z,63.80
2018-12-29T10:39:59.284Z,63.32
2018-12-29T10:42:28.123Z,63.73
2018-12-29T10:44:56.819Z,63.07
2018-12-29T10:47:25.491Z,63.97
2018-12-29T10:49:54.673Z,63.42
2018-12-29T10:52:23.444Z,63.17
2018-12-29T10:54:52.102Z,62.58
2018-12-29T10:57:20.933Z,62.71
2018-12-29T10:59:51.212Z,62.72
2018-12-29T11:02:19.891Z,63.69
2018-12-29T11:04:48.913Z,64.34
2018-12-29T11:07:17.693Z,64.50
2018-12-29T11:09:46.435Z,63.10
2018-12-29T11:12:15.396Z,63.86
2018-12-29T11:14:44.145Z,64.35
2018-12-29T11:17:13.099Z,65.37
2018-12-29T11:19:41.860Z,64.90
2018-12-29T11:22:12.631Z,64.81
2018-12-29T11:24:45.973Z,63.85
2018-12-29T11:27:14.652Z,62.25
2018-12-29T11:29:44.361Z,62.30
2018-12-29T11:32:13.139Z,62.86
2018-12-29T11:34:41.826Z,63.10
2018-12-29T11:43:01.800Z,63.47
2018-12-29T11:45:33.929Z,64.10
2018-12-29T11:48:02.584Z,64.00
2018-12-29T11:50:31.491Z,63.84
2018-12-29T11:53:00.177Z,65.17
2018-12-29T11:55:28.890Z,64.67
2018-12-29T11:57:57.887Z,65.32
2018-12-29T12:00:26.584Z,65.02
2018-12-29T12:02:55.274Z,64.59
2018-12-29T12:05:24.102Z,64.36
2018-12-29T12:07:52.795Z,64.60
2018-12-29T12:10:21.761Z,64.08
2018-12-29T12:12:50.720Z,64.16
2018-12-29T12:15:19.400Z,63.66
2018-12-29T12:17:48.089Z,62.70
2018-12-29T12:20:17.178Z,61.19
2018-12-29T12:22:46.043Z,60.94
2018-12-29T12:25:15.874Z,61.47
2018-12-29T12:27:44.895Z,61.48
2018-12-29T12:30:13.597Z,61.11
2018-12-29T12:32:42.319Z,61.62
2018-12-29T12:35:11.360Z,61.06
2018-12-29T12:37:40.046Z,62.08
2018-12-29T12:40:08.737Z,62.04
2018-12-29T12:42:37.566Z,62.83
2018-12-29T12:45:06.242Z,62.23
2018-12-29T12:47:34.995Z,61.74
2018-12-29T12:50:03.725Z,62.44
2018-12-29T12:52:35.209Z,62.21
2018-12-29T12:55:09.872Z,61.66
2018-12-29T12:57:50.278Z,62.57
2018-12-29T13:00:21.089Z,62.38
2018-12-29T13:02:49.760Z,63.20
2018-12-29T13:05:18.511Z,61.94
2018-12-29T13:07:47.385Z,61.95
2018-12-29T13:10:16.085Z,62.00
2018-12-29T13:12:48.354Z,61.41
2018-12-29T13:15:21.738Z,60.93
2018-12-29T13:17:50.592Z,61.51
2018-12-29T13:20:19.278Z,60.66
2018-12-29T13:22:48.188Z,59.92
2018-12-29T13:25:16.872Z,59.88
2018-12-29T13:27:45.780Z,59.47
2018-12-29T13:30:14.826Z,60.35
2018-12-29T13:32:46.266Z,60.92
2018-12-29T13:35:16.006Z,60.64
2018-12-29T13:37:44.777Z,60.48
2018-12-29T13:40:13.615Z,60.88
2018-12-29T13:42:42.430Z,60.95
2018-12-29T13:45:15.597Z,61.21
2018-12-29T13:47:50.484Z,60.42
2018-12-29T13:50:29.383Z,60.42
2018-12-29T13:52:58.253Z,59.83
2018-12-29T13:55:26.978Z,60.24
2018-12-29T13:57:55.780Z,60.57
2018-12-29T14:00:27.446Z,60.86
2018-12-29T14:02:56.156Z,63.06
2018-12-29T14:05:25.623Z,62.95
2018-12-29T14:07:57.392Z,63.72
2018-12-29T14:10:26.176Z,63.67
2018-12-29T14:13:01.168Z,61.50
2018-12-29T14:15:43.890Z,61.89
2018-12-29T14:18:15.374Z,60.35
2018-12-29T14:20:53.942Z,59.33
2018-12-29T14:23:25.162Z,59.02
2018-12-29T14:25:59.595Z,59.03
2018-12-29T14:28:44.734Z,59.57
2018-12-29T14:31:19.882Z,58.57
2018-12-29T14:33:56.559Z,59.23
2018-12-29T14:36:25.357Z,59.17
2018-12-29T14:38:54.390Z,58.42
2018-12-29T14:41:23.566Z,58.47
2018-12-29T14:43:52.322Z,57.81
2018-12-29T14:46:22.801Z,58.14
2018-12-29T14:49:00.469Z,58.76
2018-12-29T14:51:30.358Z,59.69
2018-12-29T14:54:03.609Z,60.40
2018-12-29T14:56:32.662Z,61.05
2018-12-29T14:59:01.382Z,61.75
2018-12-29T15:01:30.210Z,62.36
2018-12-29T15:03:59.543Z,62.54
2018-12-29T15:06:28.301Z,62.94
2018-12-29T15:09:00.351Z,63.28
2018-12-29T15:11:29.382Z,63.42
2018-12-29T15:13:58.139Z,65.47
2018-12-29T15:16:26.811Z,66.48
2018-12-29T15:18:56.769Z,66.97
2018-12-29T15:21:25.934Z,67.05
2018-12-29T15:23:58.213Z,67.36
2018-12-29T15:26:28.003Z,66.81
2018-12-29T15:28:56.709Z,66.45
2018-12-29T15:31:25.491Z,66.94
2018-12-29T15:33:54.315Z,66.92
2018-12-29T15:36:25.444Z,67.63
2018-12-29T15:38:54.159Z,68.62
2018-12-29T15:41:23.091Z,68.85
2018-12-29T15:43:52.075Z,68.84
2018-12-29T15:46:20.800Z,69.41
2018-12-29T15:48:51.114Z,69.68
2018-12-29T15:51:20.631Z,69.95
2018-12-29T15:53:49.345Z,70.48
2018-12-29T15:56:18.472Z,70.81
2018-12-29T15:58:47.273Z,70.62
2018-12-29T16:01:16.168Z,70.97
2018-12-29T16:03:45.408Z,71.36
2018-12-29T16:06:14.143Z,71.79
2018-12-29T16:08:43.810Z,71.91
2018-12-29T16:11:14.106Z,71.25
2018-12-29T16:13:43.114Z,71.65
2018-12-29T16:16:11.841Z,72.26
2018-12-29T16:18:40.812Z,71.59
2018-12-29T16:21:09.490Z,72.10
2018-12-29T16:23:38.190Z,72.35
2018-12-29T16:26:12.666Z,72.18
2018-12-29T16:28:37.814Z,72.41
2018-12-29T16:31:06.816Z,72.41
2018-12-29T16:33:36.266Z,72.67
2018-12-29T16:36:05.131Z,72.72
2018-12-29T16:38:33.827Z,72.48
2018-12-29T16:41:02.829Z,72.26
2018-12-29T16:43:31.588Z,72.53
2018-12-29T16:46:00.305Z,72.68
2018-12-29T16:48:29.234Z,72.91
2018-12-29T16:50:58.095Z,73.59
2018-12-29T16:53:29.409Z,73.22
2018-12-29T16:55:57.469Z,73.20
2018-12-29T16:58:26.175Z,73.52
2018-12-29T17:00:55.244Z,73.87
2018-12-29T17:03:24.301Z,74.05
2018-12-29T17:05:52.985Z,74.11
2018-12-29T17:08:21.681Z,74.99
2018-12-29T17:10:50.878Z,75.04
2018-12-29T17:13:19.601Z,74.67
2018-12-29T17:15:48.306Z,74.79
2018-12-29T17:18:17.091Z,74.86
2018-12-29T17:20:45.854Z,74.85
2018-12-29T17:23:14.566Z,75.57
2018-12-29T17:25:43.604Z,75.62
2018-12-29T17:28:12.290Z,76.38
2018-12-29T17:30:41.001Z,76.95
2018-12-29T17:33:09.865Z,76.84
2018-12-29T17:35:38.563Z,77.73
2018-12-29T17:38:07.268Z,78.49
2018-12-29T17:40:36.163Z,79.14
2018-12-29T17:43:04.829Z,79.17
2018-12-29T17:45:33.497Z,79.49
2018-12-29T17:48:02.582Z,79.31
2018-12-29T17:50:31.653Z,78.65
2018-12-29T17:53:00.353Z,79.44
2018-12-29T17:55:29.104Z,79.85
2018-12-29T17:57:57.809Z,79.32
2018-12-29T18:00:27.587Z,78.58
2018-12-29T18:02:56.640Z,78.28
2018-12-29T18:05:25.334Z,78.31
2018-12-29T18:07:54.028Z,77.96
2018-12-29T18:10:23.077Z,77.71
2018-12-29T18:12:51.781Z,77.96
2018-12-29T18:15:20.474Z,77.92
2018-12-29T18:17:49.384Z,77.18
2018-12-29T18:20:18.072Z,77.46
2018-12-29T18:22:46.761Z,76.30
2018-12-29T18:25:15.623Z,76.18
2018-12-29T18:27:44.587Z,76.10
2018-12-29T18:30:13.311Z,75.44
2018-12-29T18:32:42.255Z,75.19
2018-12-29T18:35:10.942Z,75.28
2018-12-29T18:37:39.644Z,75.68
2018-12-29T18:40:08.554Z,76.06
2018-12-29T18:42:37.285Z,76.51
2018-12-29T18:45:06.765Z,77.10
2018-12-29T18:47:35.552Z,77.47
2018-12-29T18:50:05.339Z,77.98
2018-12-29T18:52:34.081Z,78.53
2018-12-29T18:55:03.202Z,78.36
2018-12-29T18:57:31.886Z,78.84
2018-12-29T19:00:00.582Z,79.01
2018-12-29T19:02:29.513Z,78.57
2018-12-29T19:04:58.207Z,78.09
2018-12-29T19:07:27.099Z,78.05
2018-12-29T19:09:55.807Z,78.01
2018-12-29T19:12:24.521Z,78.17
2018-12-29T19:14:53.201Z,76.69
2018-12-29T19:17:22.233Z,76.52
2018-12-29T19:19:51.317Z,76.11
2018-12-29T19:22:19.989Z,76.30
2018-12-29T19:24:48.751Z,75.98
2018-12-29T19:27:17.460Z,75.76
2018-12-29T19:29:46.228Z,76.00
2018-12-29T19:32:15.541Z,76.00
2018-12-29T19:34:44.855Z,75.92
2018-12-29T19:37:13.946Z,76.01
2018-12-29T19:39:43.260Z,75.96
2018-12-29T19:42:11.939Z,76.59
2018-12-29T19:44:40.620Z,76.48
2018-12-29T19:47:09.750Z,77.21
2018-12-29T19:49:38.445Z,77.54
2018-12-29T19:52:07.497Z,77.16
2018-12-29T19:54:36.236Z,77.57
2018-12-29T19:57:05.503Z,78.00
2018-12-29T19:59:34.572Z,78.30
2018-12-29T20:02:03.773Z,78.02
2018-12-29T20:04:32.610Z,77.87
2018-12-29T20:07:01.475Z,78.17
2018-12-29T20:09:30.219Z,78.32
2018-12-29T20:11:59.192Z,78.14
2018-12-29T20:14:27.866Z,77.98
2018-12-29T20:16:56.593Z,77.17
2018-12-29T20:19:25.285Z,77.58
2018-12-29T20:21:53.994Z,77.15
2018-12-29T20:24:23.099Z,78.00
2018-12-29T20:26:51.799Z,78.37
2018-12-29T20:29:20.532Z,78.47
2018-12-29T20:31:49.645Z,78.55
2018-12-29T20:34:18.388Z,78.23
2018-12-29T20:36:47.540Z,78.60
2018-12-29T20:39:16.673Z,78.73
2018-12-29T20:41:45.375Z,77.66
2018-12-29T20:44:14.085Z,77.64
2018-12-29T20:46:43.299Z,77.64
2018-12-29T20:49:12.325Z,77.66
2018-12-29T20:51:41.080Z,77.44
2018-12-29T20:54:09.928Z,78.34
2018-12-29T20:56:38.612Z,78.62
2018-12-29T20:59:07.298Z,78.41
2018-12-29T21:01:36.158Z,78.60
2018-12-29T21:04:05.042Z,78.48
2018-12-29T21:06:33.750Z,77.33
2018-12-29T21:09:02.621Z,78.17
2018-12-29T21:11:31.335Z,78.15
2018-12-29T21:14:00.024Z,78.81
2018-12-29T21:16:28.861Z,79.03
2018-12-29T21:18:57.542Z,78.15
2018-12-29T21:21:26.241Z,78.35
2018-12-29T21:23:55.118Z,77.50
2018-12-29T21:26:23.795Z,77.64
2018-12-29T21:28:52.496Z,77.71
2018-12-29T21:31:21.886Z,77.26
2018-12-29T21:33:50.615Z,77.61
2018-12-29T21:36:19.297Z,77.70
2018-12-29T21:38:48.202Z,78.48
2018-12-29T21:41:16.902Z,78.84
2018-12-29T21:43:45.752Z,78.60
2018-12-29T21:46:14.562Z,77.67
2018-12-29T21:48:43.252Z,78.09
2018-12-29T21:51:11.940Z,77.68
2018-12-29T21:53:40.734Z,77.33
2018-12-29T21:56:09.382Z,77.72
2018-12-29T21:58:38.368Z,78.46
2018-12-29T22:01:07.333Z,78.40
2018-12-29T22:03:36.012Z,78.57
2018-12-29T22:06:04.702Z,78.83
2018-12-29T22:08:33.542Z,79.12
2018-12-29T22:11:02.486Z,78.75
2018-12-29T22:13:31.147Z,78.09
2018-12-29T22:15:59.963Z,78.51
2018-12-29T22:18:28.648Z,78.59
2018-12-29T22:20:57.337Z,79.02
2018-12-29T22:23:26.313Z,78.53
2018-12-29T22:25:55.193Z,78.89
2018-12-29T22:28:23.888Z,78.79
2018-12-29T22:30:52.732Z,79.01
2018-12-29T22:33:21.421Z,79.05
2018-12-29T22:35:50.112Z,79.67
2018-12-29T22:38:19.556Z,80.38
2018-12-29T22:40:48.280Z,80.63
2018-12-29T22:43:17.022Z,81.17
2018-12-29T22:45:45.821Z,81.27
2018-12-29T22:48:14.507Z,81.69
2018-12-29T22:50:43.206Z,82.11
2018-12-29T22:53:12.003Z,82.43
2018-12-29T22:55:40.686Z,82.19
2018-12-29T22:58:09.368Z,82.53
2018-12-29T23:00:39.809Z,82.53
2018-12-29T23:03:08.681Z,83.18
2018-12-29T23:05:37.365Z,83.26
2018-12-29T23:08:06.321Z,83.67
2018-12-29T23:10:35.001Z,83.29
2018-12-29T23:13:04.258Z,82.72
2018-12-29T23:15:33.096Z,83.11
2018-12-29T23:18:01.790Z,83.37
2018-12-29T23:20:30.883Z,83.52
2018-12-29T23:22:59.754Z,83.74
2018-12-29T23:25:28.466Z,83.01
2018-12-29T23:27:57.127Z,83.14
2018-12-29T23:30:26.223Z,83.92
2018-12-29T23:32:54.937Z,83.98
2018-12-29T23:35:23.619Z,84.29
2018-12-29T23:37:52.462Z,84.89
2018-12-29T23:40:21.141Z,84.21
2018-12-29T23:42:49.893Z,83.76
2018-12-29T23:45:18.628Z,84.38
2018-12-29T23:47:47.315Z,84.38
2018-12-29T23:50:16.173Z,84.95
2018-12-29T23:52:45.274Z,84.52
2018-12-29T23:55:14.341Z,84.88
2018-12-29T23:57:43.034Z,85.75
